createdAt,value
2019-01-17T00:01:42.450Z,3.73
2019-01-17T00:07:54.977Z,3.37
2019-01-17T00:13:03.429Z,3.10
2019-01-17T00:18:29.888Z,3.83
2019-01-17T00:23:38.116Z,3.43
2019-01-17T00:28:52.332Z,3.33
2019-01-17T00:34:03.767Z,2.47
2019-01-17T00:39:12.592Z,3.10
2019-01-17T00:44:21.090Z,2.80
2019-01-17T00:49:30.488Z,3.23
2019-01-17T00:54:42.752Z,3.27
2019-01-17T00:59:51.369Z,2.58
2019-01-17T01:07:04.913Z,3.40
2019-01-17T01:12:20.299Z,3.75
2019-01-17T01:17:27.742Z,3.87
2019-01-17T01:22:38.994Z,4.37
2019-01-17T01:27:47.743Z,4.17
2019-01-17T01:32:56.148Z,3.97
2019-01-17T01:38:10.579Z,4.33
2019-01-17T01:43:19.012Z,4.50
2019-01-17T01:48:27.692Z,3.53
2019-01-17T01:53:30.937Z,3.03
2019-01-17T01:58:34.140Z,3.67
2019-01-17T02:03:37.393Z,3.53
2019-01-17T02:08:40.647Z,3.57
2019-01-17T02:13:43.910Z,3.20
2019-01-17T02:18:47.115Z,4.73
2019-01-17T02:23:50.453Z,3.53
2019-01-17T02:28:53.697Z,4.20
2019-01-17T02:33:57.056Z,5.13
2019-01-17T02:39:00.266Z,3.97
2019-01-17T02:44:03.498Z,3.70
2019-01-17T02:49:06.747Z,4.00
2019-01-17T02:54:09.991Z,4.27
2019-01-17T02:59:13.230Z,4.47
2019-01-17T03:04:16.462Z,3.83
2019-01-17T03:09:19.825Z,3.80
2019-01-17T03:14:23.187Z,4.97
2019-01-17T03:19:26.417Z,3.77
2019-01-17T03:24:29.668Z,3.53
2019-01-17T03:29:33.093Z,3.63
2019-01-17T03:34:36.314Z,4.53
2019-01-17T03:39:39.545Z,4.40
2019-01-17T03:44:42.773Z,4.20
2019-01-17T03:49:46.001Z,4.17
2019-01-17T03:54:52.842Z,3.97
2019-01-17T03:59:52.637Z,4.03
2019-01-17T04:04:55.849Z,3.60
2019-01-17T04:09:59.066Z,3.00
2019-01-17T04:15:02.482Z,3.63
2019-01-17T04:20:07.559Z,3.50
2019-01-17T04:25:11.032Z,3.27
2019-01-17T04:30:17.214Z,3.23
2019-01-17T04:35:20.431Z,3.43
2019-01-17T04:40:23.662Z,3.53
2019-01-17T04:45:26.871Z,3.50
2019-01-17T04:50:30.128Z,3.47
2019-01-17T04:55:33.355Z,3.93
2019-01-17T05:00:36.668Z,4.30
2019-01-17T05:05:39.978Z,4.13
2019-01-17T05:10:43.192Z,2.93
2019-01-17T05:15:46.475Z,3.80
2019-01-17T05:20:49.875Z,3.37
2019-01-17T05:25:53.234Z,3.93
2019-01-17T05:30:56.480Z,4.40
2019-01-17T05:35:59.917Z,4.30
2019-01-17T05:41:03.164Z,3.60
2019-01-17T05:46:06.393Z,4.00
2019-01-17T05:51:09.617Z,3.17
2019-01-17T05:56:12.862Z,3.47
2019-01-17T06:01:16.204Z,2.97
2019-01-17T06:06:22.743Z,3.97
2019-01-17T06:11:26.139Z,3.70
2019-01-17T06:16:29.399Z,4.75
2019-01-17T06:21:32.634Z,4.47
2019-01-17T06:26:35.858Z,3.87
2019-01-17T06:31:39.087Z,3.87
2019-01-17T06:36:42.361Z,3.10
2019-01-17T06:41:45.784Z,3.30
2019-01-17T06:46:49.205Z,4.20
2019-01-17T06:51:52.611Z,4.13
2019-01-17T06:56:56.057Z,3.70
2019-01-17T07:01:59.335Z,3.23
2019-01-17T07:07:02.585Z,3.53
2019-01-17T07:12:06.958Z,4.10
2019-01-17T07:17:10.180Z,3.47
2019-01-17T07:22:13.418Z,3.33
2019-01-17T07:27:16.697Z,2.83
2019-01-17T07:32:19.921Z,3.13
2019-01-17T07:37:23.212Z,4.63
2019-01-17T07:42:26.464Z,4.47
2019-01-17T07:47:29.672Z,3.93
2019-01-17T07:52:32.935Z,3.73
2019-01-17T07:57:36.167Z,4.27
2019-01-17T08:02:40.366Z,4.28
2019-01-17T08:07:43.588Z,4.73
2019-01-17T08:12:46.853Z,5.00
2019-01-17T08:17:50.239Z,4.35
2019-01-17T08:22:53.877Z,4.57
2019-01-17T08:27:57.111Z,4.95
2019-01-17T08:33:00.529Z,4.43
2019-01-17T08:38:03.818Z,4.37
2019-01-17T08:43:07.173Z,4.47
2019-01-17T08:48:10.456Z,5.43
2019-01-17T08:53:13.712Z,8.23
2019-01-17T08:58:16.964Z,5.90
2019-01-17T09:03:20.258Z,3.33
2019-01-17T09:08:23.689Z,4.07
2019-01-17T09:13:26.965Z,3.93
2019-01-17T09:18:30.423Z,5.37
2019-01-17T09:23:33.690Z,3.23
2019-01-17T09:28:36.964Z,4.73
2019-01-17T09:33:40.342Z,4.50
2019-01-17T09:38:43.608Z,3.23
2019-01-17T09:43:46.867Z,4.03
2019-01-17T09:48:50.220Z,4.13
2019-01-17T09:53:53.439Z,4.20
2019-01-17T09:58:56.691Z,3.97
2019-01-17T10:03:59.968Z,3.33
2019-01-17T10:09:03.243Z,2.97
2019-01-17T10:14:06.678Z,3.40
2019-01-17T10:19:23.508Z,2.60
2019-01-17T10:24:50.412Z,3.60
2019-01-17T10:30:06.416Z,2.93
2019-01-17T10:35:33.502Z,3.30
2019-01-17T10:40:53.633Z,4.97
2019-01-17T10:46:08.149Z,4.30
2019-01-17T10:51:28.390Z,3.67
2019-01-17T10:58:48.667Z,3.47
2019-01-17T11:04:02.980Z,3.37
2019-01-17T11:10:06.367Z,3.70
2019-01-17T11:15:25.859Z,2.97
2019-01-17T11:20:52.215Z,2.90
2019-01-17T11:27:09.308Z,2.90
2019-01-17T11:32:21.814Z,3.70
2019-01-17T11:37:42.372Z,3.10
2019-01-17T11:43:00.220Z,3.10
2019-01-17T11:48:20.217Z,2.27
2019-01-17T11:55:33.608Z,2.60
2019-01-17T12:00:46.966Z,1.87
2019-01-17T12:05:50.296Z,2.77
2019-01-17T12:10:53.530Z,2.13
2019-01-17T12:15:56.887Z,3.08
2019-01-17T12:21:00.109Z,2.97
2019-01-17T12:26:04.546Z,2.90
2019-01-17T12:31:07.807Z,2.60
2019-01-17T12:36:11.107Z,2.67
2019-01-17T12:41:14.337Z,2.27
2019-01-17T12:46:17.615Z,2.80
2019-01-17T12:51:20.850Z,1.95
2019-01-17T12:56:24.260Z,2.40
2019-01-17T13:01:27.516Z,1.67
2019-01-17T13:06:30.733Z,2.67
2019-01-17T13:11:34.061Z,1.60
2019-01-17T13:16:37.475Z,2.07
2019-01-17T13:21:40.732Z,1.83
2019-01-17T13:26:43.977Z,2.00
2019-01-17T13:31:47.362Z,1.53
2019-01-17T13:36:50.581Z,1.70
2019-01-17T13:41:53.891Z,3.00
2019-01-17T13:46:57.275Z,2.97
2019-01-17T13:52:00.547Z,1.53
2019-01-17T13:57:07.438Z,1.43
2019-01-17T14:02:07.191Z,1.70
2019-01-17T14:07:10.537Z,0.83
2019-01-17T14:12:13.904Z,0.80
2019-01-17T14:17:17.133Z,1.10
2019-01-17T14:22:20.544Z,0.50
2019-01-17T14:27:23.935Z,0.43
2019-01-17T14:32:27.473Z,0.40
2019-01-17T14:37:30.697Z,0.50
2019-01-17T14:42:34.023Z,0.30
2019-01-17T14:47:37.384Z,0.43
2019-01-17T14:52:41.202Z,1.12
2019-01-17T14:57:44.602Z,0.90
2019-01-17T15:02:47.845Z,0.43
2019-01-17T15:07:51.175Z,0.47
2019-01-17T15:12:54.649Z,0.57
2019-01-17T15:17:58.150Z,1.13
2019-01-17T15:23:01.513Z,0.93
2019-01-17T15:28:05.880Z,0.40
2019-01-17T15:33:08.600Z,0.85
2019-01-17T15:38:12.016Z,1.00
2019-01-17T15:43:16.387Z,0.47
2019-01-17T15:48:19.792Z,0.82
2019-01-17T15:53:23.109Z,1.13
2019-01-17T15:58:26.588Z,1.87
2019-01-17T16:03:29.935Z,1.00
2019-01-17T16:08:33.382Z,0.93
2019-01-17T16:13:36.797Z,1.00
2019-01-17T16:18:40.120Z,1.40
2019-01-17T16:23:43.474Z,1.27
2019-01-17T16:28:46.967Z,0.98
2019-01-17T16:33:50.291Z,2.53
2019-01-17T16:38:53.777Z,2.37
2019-01-17T16:43:57.102Z,1.37
2019-01-17T16:49:00.516Z,1.57
2019-01-17T16:54:04.040Z,1.30
2019-01-17T16:59:07.464Z,5.70
2019-01-17T17:04:10.894Z,2.70
2019-01-17T17:09:14.380Z,0.83
2019-01-17T17:14:17.726Z,1.10
2019-01-17T17:19:21.301Z,1.80
2019-01-17T17:24:24.657Z,0.30
2019-01-17T17:29:28.108Z,0.70
2019-01-17T17:34:31.445Z,0.97
2019-01-17T17:39:34.952Z,1.60
2019-01-17T17:44:38.304Z,2.37
2019-01-17T17:49:41.821Z,1.10
2019-01-17T17:54:45.197Z,1.90
2019-01-17T17:59:48.532Z,1.23
2019-01-17T18:04:51.967Z,1.03
2019-01-17T18:09:56.168Z,1.27
2019-01-17T18:15:00.688Z,1.97
2019-01-17T18:20:05.124Z,0.37
2019-01-17T18:25:08.503Z,0.57
2019-01-17T18:30:16.045Z,0.73
2019-01-17T18:35:19.648Z,0.57
2019-01-17T18:40:23.154Z,0.35
2019-01-17T18:45:26.967Z,0.93
2019-01-17T18:50:31.254Z,0.93
2019-01-17T18:55:34.691Z,1.40
2019-01-17T19:00:38.087Z,1.33
2019-01-17T19:05:41.523Z,1.40
2019-01-17T19:10:45.064Z,0.70
2019-01-17T19:15:48.831Z,0.70
2019-01-17T19:20:52.254Z,0.70
2019-01-17T19:25:55.678Z,0.50
2019-01-17T19:30:59.147Z,0.77
2019-01-17T19:36:02.544Z,0.50
2019-01-17T19:41:06.001Z,0.73
2019-01-17T19:46:09.814Z,0.40
2019-01-17T19:51:13.432Z,0.77
2019-01-17T19:56:17.289Z,0.50
2019-01-17T20:01:20.957Z,0.70
2019-01-17T20:06:24.418Z,0.30
2019-01-17T20:11:28.013Z,0.53
2019-01-17T20:16:31.580Z,0.50
2019-01-17T20:21:35.504Z,0.57
2019-01-17T20:26:38.888Z,1.17
2019-01-17T20:31:42.440Z,0.90
2019-01-17T20:36:46.080Z,0.67
2019-01-17T20:41:49.529Z,2.80
2019-01-17T20:46:53.136Z,1.53
2019-01-17T20:51:57.433Z,0.90
2019-01-17T20:57:01.116Z,1.40
2019-01-17T21:02:10.184Z,0.50
2019-01-17T21:07:13.528Z,0.80
2019-01-17T21:12:17.559Z,0.70
2019-01-17T21:17:21.106Z,0.97
2019-01-17T21:22:24.583Z,1.90
2019-01-17T21:27:27.888Z,1.97
2019-01-17T21:32:31.285Z,1.02
2019-01-17T21:37:35.773Z,1.17
2019-01-17T21:42:39.223Z,1.77
2019-01-17T21:47:42.556Z,0.90
2019-01-17T21:52:45.943Z,1.03
2019-01-17T21:57:49.508Z,1.27
2019-01-17T22:02:52.807Z,0.90
2019-01-17T22:07:56.604Z,1.30
2019-01-17T22:13:00.103Z,1.12
2019-01-17T22:18:03.515Z,1.20
2019-01-17T22:23:06.824Z,0.62
2019-01-17T22:28:10.487Z,0.82
2019-01-17T22:33:13.933Z,0.77
2019-01-17T22:38:17.354Z,0.77
2019-01-17T22:43:20.774Z,0.70
2019-01-17T22:48:24.070Z,1.27
2019-01-17T22:53:27.344Z,1.00
2019-01-17T22:58:30.767Z,0.60
2019-01-17T23:03:39.752Z,1.03
2019-01-17T23:08:43.164Z,0.70
2019-01-17T23:13:46.452Z,1.70
2019-01-17T23:18:49.846Z,1.20
2019-01-17T23:23:53.183Z,0.83
2019-01-17T23:28:56.508Z,0.83
2019-01-17T23:33:59.828Z,1.67
2019-01-17T23:39:03.183Z,1.02
2019-01-17T23:44:06.518Z,1.60
2019-01-17T23:49:09.807Z,2.20
2019-01-17T23:54:13.109Z,1.15
2019-01-17T23:59:22.471Z,1.20
